Pagrindinis puslapis
METAR-TAF:

METAR-TAF

Oro uostai :

Rerusas, Norvegija

platuma: 62-35N, ilguma: 011-21E, Aukštis: 626 m

Dabartinis oras

Ataskaita buvo paskelbta 23 minutes, ne 02:20 UTC
Vėjas 4 kt iš Šiaurės/Šiaurės Vakarų
Temperatūra 10°C
Drėgmė 93%
Slėgis 1015 hPa
Matomumas 10 km arba daugiau

METAR: ENRO 250220Z AUTO 34004KT 9999NDV OVC007/// 10/09 Q1015

Laikas: 04:43 (02:43 UTC)

Prognozė

Ataskaita buvo paskelbta 43 minutes, ne 02:00 UTC
Prognozė galioja nuo 25 metu 03 UTC su 25 metu 12 UTC
Vėjas 8 kt iš Šiaurės/Šiaurės Vakarų
Matomumas 10 km arba daugiau
Su prošvaistėmis ne aukštis 800 ft
Laikinai
nuo 25 metu 10 UTC su 25 metu 12 UTC
Su prošvaistėmis ne aukštis 1800 ft

TAF: ENRO 250200Z 2503/2512 34008KT 9999 BKN008 TEMPO 2510/2512 BKN018

Orai ataskaitas ir orų prognozės (METAR, TAF).

turimą stotys yra geltonos ir raudonos taškus žemėlapyje.

Perkelti pele per norėdami pamatyti stoties vardą.

Tada spustelėkite, norėdami matyti oro stebėjimo ir prognozės.

Norėdami pakeisti žemėlapį: spustelėkite ant žalios mygtukų su juodo kryžiaus žemyn,; žalią mygtuką su brūkšneliu, jei norite nutolinti; arba žalių rodyklių gretimoms žemėlapius.


METAR-TAF: